sensor_id;sensor_type;location;lat;lon;timestamp;temperature;humidity
10270;DHT22;5180;50.832;5.390;2022-07-10T00:01:26;14.50;93.90
10270;DHT22;5180;50.832;5.390;2022-07-10T00:03:52;14.50;94.00
10270;DHT22;5180;50.832;5.390;2022-07-10T00:06:19;14.50;94.10
10270;DHT22;5180;50.832;5.390;2022-07-10T00:08:45;14.50;94.20
10270;DHT22;5180;50.832;5.390;2022-07-10T00:11:11;14.40;94.10
10270;DHT22;5180;50.832;5.390;2022-07-10T00:13:37;14.40;94.10
10270;DHT22;5180;50.832;5.390;2022-07-10T00:16:03;14.40;94.10
10270;DHT22;5180;50.832;5.390;2022-07-10T00:18:29;14.40;94.20
10270;DHT22;5180;50.832;5.390;2022-07-10T00:20:58;14.40;94.20
10270;DHT22;5180;50.832;5.390;2022-07-10T00:23:23;14.30;94.20
10270;DHT22;5180;50.832;5.390;2022-07-10T00:25:49;14.30;94.20
10270;DHT22;5180;50.832;5.390;2022-07-10T00:28:14;14.30;94.20
10270;DHT22;5180;50.832;5.390;2022-07-10T00:30:40;14.20;94.30
10270;DHT22;5180;50.832;5.390;2022-07-10T00:33:05;14.20;94.40
10270;DHT22;5180;50.832;5.390;2022-07-10T00:35:31;14.10;94.40
10270;DHT22;5180;50.832;5.390;2022-07-10T00:37:57;14.10;94.50
10270;DHT22;5180;50.832;5.390;2022-07-10T00:40:22;14.10;94.50
10270;DHT22;5180;50.832;5.390;2022-07-10T00:42:48;14.10;94.60
10270;DHT22;5180;50.832;5.390;2022-07-10T00:45:14;14.00;94.60
10270;DHT22;5180;50.832;5.390;2022-07-10T00:47:39;14.00;94.70
10270;DHT22;5180;50.832;5.390;2022-07-10T00:50:06;14.00;94.80
10270;DHT22;5180;50.832;5.390;2022-07-10T00:52:32;13.90;94.80
10270;DHT22;5180;50.832;5.390;2022-07-10T00:55:01;13.90;94.80
10270;DHT22;5180;50.832;5.390;2022-07-10T00:57:27;13.80;94.90
10270;DHT22;5180;50.832;5.390;2022-07-10T00:59:53;13.80;95.00
10270;DHT22;5180;50.832;5.390;2022-07-10T01:02:19;13.80;95.20
10270;DHT22;5180;50.832;5.390;2022-07-10T01:04:45;13.80;95.40
10270;DHT22;5180;50.832;5.390;2022-07-10T01:07:11;13.70;95.80
10270;DHT22;5180;50.832;5.390;2022-07-10T01:09:37;13.70;96.30
10270;DHT22;5180;50.832;5.390;2022-07-10T01:12:03;13.70;96.50
10270;DHT22;5180;50.832;5.390;2022-07-10T01:14:30;13.70;96.80
10270;DHT22;5180;50.832;5.390;2022-07-10T01:16:58;13.70;97.00
10270;DHT22;5180;50.832;5.390;2022-07-10T01:19:24;13.70;97.20
10270;DHT22;5180;50.832;5.390;2022-07-10T01:21:49;13.70;97.30
10270;DHT22;5180;50.832;5.390;2022-07-10T01:24:15;13.70;97.40
10270;DHT22;5180;50.832;5.390;2022-07-10T01:26:41;13.70;97.40
10270;DHT22;5180;50.832;5.390;2022-07-10T01:29:09;13.60;97.40
10270;DHT22;5180;50.832;5.390;2022-07-10T01:31:36;13.60;97.40
10270;DHT22;5180;50.832;5.390;2022-07-10T01:34:04;13.60;97.70
10270;DHT22;5180;50.832;5.390;2022-07-10T01:36:31;13.60;97.70
10270;DHT22;5180;50.832;5.390;2022-07-10T01:38:58;13.60;97.60
10270;DHT22;5180;50.832;5.390;2022-07-10T01:41:24;13.60;97.60
10270;DHT22;5180;50.832;5.390;2022-07-10T01:43:50;13.60;97.90
10270;DHT22;5180;50.832;5.390;2022-07-10T01:46:17;13.50;97.60
10270;DHT22;5180;50.832;5.390;2022-07-10T01:48:42;13.50;97.50
10270;DHT22;5180;50.832;5.390;2022-07-10T01:51:09;13.50;97.50
10270;DHT22;5180;50.832;5.390;2022-07-10T01:53:36;13.40;97.50
10270;DHT22;5180;50.832;5.390;2022-07-10T01:56:07;13.30;97.60
10270;DHT22;5180;50.832;5.390;2022-07-10T01:58:33;13.30;97.70
10270;DHT22;5180;50.832;5.390;2022-07-10T02:01:00;13.20;97.80
10270;DHT22;5180;50.832;5.390;2022-07-10T02:03:25;13.20;97.80
10270;DHT22;5180;50.832;5.390;2022-07-10T02:06:09;13.10;97.80
10270;DHT22;5180;50.832;5.390;2022-07-10T02:08:35;13.00;97.90
10270;DHT22;5180;50.832;5.390;2022-07-10T02:11:00;12.90;97.90
10270;DHT22;5180;50.832;5.390;2022-07-10T02:13:26;12.90;98.00
10270;DHT22;5180;50.832;5.390;2022-07-10T02:15:54;12.80;98.10
10270;DHT22;5180;50.832;5.390;2022-07-10T02:18:20;12.80;98.20
10270;DHT22;5180;50.832;5.390;2022-07-10T02:20:46;12.70;98.20
10270;DHT22;5180;50.832;5.390;2022-07-10T02:23:12;12.70;98.30
10270;DHT22;5180;50.832;5.390;2022-07-10T02:25:38;12.70;98.30
10270;DHT22;5180;50.832;5.390;2022-07-10T02:28:04;12.60;98.40
10270;DHT22;5180;50.832;5.390;2022-07-10T02:30:29;12.60;98.50
10270;DHT22;5180;50.832;5.390;2022-07-10T02:32:55;12.50;98.70
10270;DHT22;5180;50.832;5.390;2022-07-10T02:35:21;12.50;98.90
10270;DHT22;5180;50.832;5.390;2022-07-10T02:37:46;12.50;99.00
10270;DHT22;5180;50.832;5.390;2022-07-10T02:40:12;12.50;99.10
10270;DHT22;5180;50.832;5.390;2022-07-10T02:42:38;12.50;99.20
10270;DHT22;5180;50.832;5.390;2022-07-10T02:45:04;12.50;99.30
10270;DHT22;5180;50.832;5.390;2022-07-10T02:47:30;12.50;99.50
10270;DHT22;5180;50.832;5.390;2022-07-10T02:49:55;12.40;99.50
10270;DHT22;5180;50.832;5.390;2022-07-10T02:52:21;12.40;99.60
10270;DHT22;5180;50.832;5.390;2022-07-10T02:54:47;12.40;99.70
10270;DHT22;5180;50.832;5.390;2022-07-10T02:57:12;12.40;99.80
10270;DHT22;5180;50.832;5.390;2022-07-10T02:59:38;12.30;99.90
10270;DHT22;5180;50.832;5.390;2022-07-10T03:02:04;12.30;99.90
10270;DHT22;5180;50.832;5.390;2022-07-10T03:04:30;12.30;99.90
10270;DHT22;5180;50.832;5.390;2022-07-10T03:06:55;12.20;99.90
10270;DHT22;5180;50.832;5.390;2022-07-10T03:09:21;12.20;99.90
10270;DHT22;5180;50.832;5.390;2022-07-10T03:11:46;12.20;99.90
10270;DHT22;5180;50.832;5.390;2022-07-10T03:14:12;12.10;99.90
10270;DHT22;5180;50.832;5.390;2022-07-10T03:16:38;12.10;99.90
10270;DHT22;5180;50.832;5.390;2022-07-10T03:19:03;12.10;99.90
10270;DHT22;5180;50.832;5.390;2022-07-10T03:21:29;12.10;99.90
10270;DHT22;5180;50.832;5.390;2022-07-10T03:23:57;12.10;99.90
10270;DHT22;5180;50.832;5.390;2022-07-10T03:26:23;12.10;99.90
10270;DHT22;5180;50.832;5.390;2022-07-10T03:28:48;12.10;99.90
10270;DHT22;5180;50.832;5.390;2022-07-10T03:31:14;12.10;99.90
10270;DHT22;5180;50.832;5.390;2022-07-10T03:33:40;12.10;99.90
10270;DHT22;5180;50.832;5.390;2022-07-10T03:36:05;12.10;99.90
10270;DHT22;5180;50.832;5.390;2022-07-10T03:38:31;12.10;99.90
10270;DHT22;5180;50.832;5.390;2022-07-10T03:40:57;12.00;99.90
10270;DHT22;5180;50.832;5.390;2022-07-10T03:43:22;12.00;99.90
10270;DHT22;5180;50.832;5.390;2022-07-10T03:45:48;12.00;99.90
10270;DHT22;5180;50.832;5.390;2022-07-10T03:48:13;12.10;99.90
10270;DHT22;5180;50.832;5.390;2022-07-10T03:50:39;12.10;99.90
10270;DHT22;5180;50.832;5.390;2022-07-10T03:53:05;12.10;99.90
10270;DHT22;5180;50.832;5.390;2022-07-10T03:55:30;12.10;99.90
10270;DHT22;5180;50.832;5.390;2022-07-10T03:57:56;12.10;99.90
10270;DHT22;5180;50.832;5.390;2022-07-10T04:00:28;12.10;99.90
10270;DHT22;5180;50.832;5.390;2022-07-10T04:03:05;12.10;99.90
10270;DHT22;5180;50.832;5.390;2022-07-10T04:05:31;12.10;99.90
10270;DHT22;5180;50.832;5.390;2022-07-10T04:07:58;12.20;99.90
10270;DHT22;5180;50.832;5.390;2022-07-10T04:10:25;12.20;99.90
10270;DHT22;5180;50.832;5.390;2022-07-10T04:12:51;12.20;99.90
10270;DHT22;5180;50.832;5.390;2022-07-10T04:15:17;12.20;99.90
10270;DHT22;5180;50.832;5.390;2022-07-10T04:17:43;12.20;99.90
10270;DHT22;5180;50.832;5.390;2022-07-10T04:20:09;12.30;99.90
10270;DHT22;5180;50.832;5.390;2022-07-10T04:22:35;12.30;99.90
10270;DHT22;5180;50.832;5.390;2022-07-10T04:25:01;12.30;99.90
10270;DHT22;5180;50.832;5.390;2022-07-10T04:27:27;12.40;99.90
10270;DHT22;5180;50.832;5.390;2022-07-10T04:29:53;12.40;99.90
10270;DHT22;5180;50.832;5.390;2022-07-10T04:32:18;12.40;99.90
10270;DHT22;5180;50.832;5.390;2022-07-10T04:34:44;12.40;99.90
10270;DHT22;5180;50.832;5.390;2022-07-10T04:37:10;12.40;99.90
10270;DHT22;5180;50.832;5.390;2022-07-10T04:39:36;12.40;99.90
10270;DHT22;5180;50.832;5.390;2022-07-10T04:42:03;12.50;99.90
10270;DHT22;5180;50.832;5.390;2022-07-10T04:44:29;12.50;99.90
10270;DHT22;5180;50.832;5.390;2022-07-10T04:46:55;12.50;99.90
10270;DHT22;5180;50.832;5.390;2022-07-10T04:49:21;12.50;99.90
10270;DHT22;5180;50.832;5.390;2022-07-10T04:51:47;12.60;99.90
10270;DHT22;5180;50.832;5.390;2022-07-10T04:54:12;12.70;99.90
10270;DHT22;5180;50.832;5.390;2022-07-10T04:56:38;12.70;99.90
10270;DHT22;5180;50.832;5.390;2022-07-10T04:59:04;12.80;99.90
10270;DHT22;5180;50.832;5.390;2022-07-10T05:01:29;12.80;99.90
10270;DHT22;5180;50.832;5.390;2022-07-10T05:03:55;12.90;99.90
10270;DHT22;5180;50.832;5.390;2022-07-10T05:06:21;13.00;99.90
10270;DHT22;5180;50.832;5.390;2022-07-10T05:08:46;13.00;99.90
10270;DHT22;5180;50.832;5.390;2022-07-10T05:11:12;13.10;99.90
10270;DHT22;5180;50.832;5.390;2022-07-10T05:13:38;13.10;99.90
10270;DHT22;5180;50.832;5.390;2022-07-10T05:16:04;13.20;99.90
10270;DHT22;5180;50.832;5.390;2022-07-10T05:18:30;13.40;99.90
10270;DHT22;5180;50.832;5.390;2022-07-10T05:20:56;13.50;99.90
10270;DHT22;5180;50.832;5.390;2022-07-10T05:23:22;13.70;99.90
10270;DHT22;5180;50.832;5.390;2022-07-10T05:25:48;13.80;99.90
10270;DHT22;5180;50.832;5.390;2022-07-10T05:28:13;14.00;99.90
10270;DHT22;5180;50.832;5.390;2022-07-10T05:30:41;14.20;99.90
10270;DHT22;5180;50.832;5.390;2022-07-10T05:33:06;14.40;99.90
10270;DHT22;5180;50.832;5.390;2022-07-10T05:35:32;14.50;99.90
10270;DHT22;5180;50.832;5.390;2022-07-10T05:37:58;14.60;99.90
10270;DHT22;5180;50.832;5.390;2022-07-10T05:40:24;14.80;99.90
10270;DHT22;5180;50.832;5.390;2022-07-10T05:42:49;15.00;99.90
10270;DHT22;5180;50.832;5.390;2022-07-10T05:45:15;15.10;99.90
10270;DHT22;5180;50.832;5.390;2022-07-10T05:47:41;15.20;99.90
10270;DHT22;5180;50.832;5.390;2022-07-10T05:50:06;15.30;99.90
10270;DHT22;5180;50.832;5.390;2022-07-10T05:52:33;15.50;99.90
10270;DHT22;5180;50.832;5.390;2022-07-10T05:54:59;15.70;99.90
10270;DHT22;5180;50.832;5.390;2022-07-10T05:57:24;15.80;99.90
10270;DHT22;5180;50.832;5.390;2022-07-10T05:59:50;16.00;99.90
10270;DHT22;5180;50.832;5.390;2022-07-10T06:02:16;16.10;99.90
10270;DHT22;5180;50.832;5.390;2022-07-10T06:04:42;16.20;99.90
10270;DHT22;5180;50.832;5.390;2022-07-10T06:07:08;16.30;99.90
10270;DHT22;5180;50.832;5.390;2022-07-10T06:09:34;16.50;99.90
10270;DHT22;5180;50.832;5.390;2022-07-10T06:12:00;16.50;99.90
10270;DHT22;5180;50.832;5.390;2022-07-10T06:14:26;16.60;99.90
10270;DHT22;5180;50.832;5.390;2022-07-10T06:16:52;16.70;99.90
10270;DHT22;5180;50.832;5.390;2022-07-10T06:19:17;16.80;99.90
10270;DHT22;5180;50.832;5.390;2022-07-10T06:21:44;16.90;99.90
10270;DHT22;5180;50.832;5.390;2022-07-10T06:24:09;17.00;99.90
10270;DHT22;5180;50.832;5.390;2022-07-10T06:26:35;17.10;99.90
10270;DHT22;5180;50.832;5.390;2022-07-10T06:29:01;17.30;99.90
10270;DHT22;5180;50.832;5.390;2022-07-10T06:31:27;17.50;99.90
10270;DHT22;5180;50.832;5.390;2022-07-10T06:33:52;17.80;99.90
10270;DHT22;5180;50.832;5.390;2022-07-10T06:36:18;18.20;99.90
10270;DHT22;5180;50.832;5.390;2022-07-10T06:38:43;18.70;99.90
10270;DHT22;5180;50.832;5.390;2022-07-10T06:41:09;19.20;99.90
10270;DHT22;5180;50.832;5.390;2022-07-10T06:43:35;19.40;99.90
10270;DHT22;5180;50.832;5.390;2022-07-10T06:46:00;19.50;99.90
10270;DHT22;5180;50.832;5.390;2022-07-10T06:48:27;19.50;99.90
10270;DHT22;5180;50.832;5.390;2022-07-10T06:50:53;19.50;99.90
10270;DHT22;5180;50.832;5.390;2022-07-10T06:53:18;19.50;99.80
10270;DHT22;5180;50.832;5.390;2022-07-10T06:55:50;19.60;99.70
10270;DHT22;5180;50.832;5.390;2022-07-10T06:58:16;19.70;99.50
10270;DHT22;5180;50.832;5.390;2022-07-10T07:00:41;19.90;99.20
10270;DHT22;5180;50.832;5.390;2022-07-10T07:03:07;20.20;98.90
10270;DHT22;5180;50.832;5.390;2022-07-10T07:05:32;20.40;98.60
10270;DHT22;5180;50.832;5.390;2022-07-10T07:07:58;20.70;98.40
10270;DHT22;5180;50.832;5.390;2022-07-10T07:10:24;21.10;98.00
10270;DHT22;5180;50.832;5.390;2022-07-10T07:12:49;21.50;97.60
10270;DHT22;5180;50.832;5.390;2022-07-10T07:15:15;22.00;97.30
10270;DHT22;5180;50.832;5.390;2022-07-10T07:17:42;22.30;96.80
10270;DHT22;5180;50.832;5.390;2022-07-10T07:20:23;22.60;96.40
10270;DHT22;5180;50.832;5.390;2022-07-10T07:23:08;22.70;96.00
10270;DHT22;5180;50.832;5.390;2022-07-10T07:25:39;22.50;95.90
10270;DHT22;5180;50.832;5.390;2022-07-10T07:28:10;22.50;95.50
10270;DHT22;5180;50.832;5.390;2022-07-10T07:30:36;22.10;95.40
10270;DHT22;5180;50.832;5.390;2022-07-10T07:33:01;21.80;95.40
10270;DHT22;5180;50.832;5.390;2022-07-10T07:35:27;21.70;95.50
10270;DHT22;5180;50.832;5.390;2022-07-10T07:37:53;22.00;95.20
10270;DHT22;5180;50.832;5.390;2022-07-10T07:40:21;22.40;94.90
10270;DHT22;5180;50.832;5.390;2022-07-10T07:42:49;22.60;94.40
10270;DHT22;5180;50.832;5.390;2022-07-10T07:45:15;22.60;94.50
10270;DHT22;5180;50.832;5.390;2022-07-10T07:47:57;23.00;94.00
10270;DHT22;5180;50.832;5.390;2022-07-10T07:50:26;23.10;93.90
10270;DHT22;5180;50.832;5.390;2022-07-10T07:52:52;23.30;93.50
10270;DHT22;5180;50.832;5.390;2022-07-10T07:55:19;24.10;93.40
10270;DHT22;5180;50.832;5.390;2022-07-10T07:57:46;24.80;92.40
10270;DHT22;5180;50.832;5.390;2022-07-10T08:00:13;25.80;92.00
10270;DHT22;5180;50.832;5.390;2022-07-10T08:02:40;26.40;90.80
10270;DHT22;5180;50.832;5.390;2022-07-10T08:05:06;26.50;89.80
10270;DHT22;5180;50.832;5.390;2022-07-10T08:07:36;25.70;89.50
10270;DHT22;5180;50.832;5.390;2022-07-10T08:10:03;25.80;90.40
10270;DHT22;5180;50.832;5.390;2022-07-10T08:12:30;26.50;89.50
10270;DHT22;5180;50.832;5.390;2022-07-10T08:14:55;26.70;88.40
10270;DHT22;5180;50.832;5.390;2022-07-10T08:17:21;27.00;87.80
10270;DHT22;5180;50.832;5.390;2022-07-10T08:19:47;27.50;85.90
10270;DHT22;5180;50.832;5.390;2022-07-10T08:22:13;27.00;84.20
10270;DHT22;5180;50.832;5.390;2022-07-10T08:24:39;26.60;85.20
10270;DHT22;5180;50.832;5.390;2022-07-10T08:27:05;26.40;85.90
10270;DHT22;5180;50.832;5.390;2022-07-10T08:29:31;26.30;85.00
10270;DHT22;5180;50.832;5.390;2022-07-10T08:31:57;26.10;84.70
10270;DHT22;5180;50.832;5.390;2022-07-10T08:34:23;25.80;84.50
10270;DHT22;5180;50.832;5.390;2022-07-10T08:36:48;25.50;84.40
10270;DHT22;5180;50.832;5.390;2022-07-10T08:39:14;25.20;84.40
10270;DHT22;5180;50.832;5.390;2022-07-10T08:41:42;25.00;84.20
10270;DHT22;5180;50.832;5.390;2022-07-10T08:44:08;24.50;83.90
10270;DHT22;5180;50.832;5.390;2022-07-10T08:46:34;24.00;84.60
10270;DHT22;5180;50.832;5.390;2022-07-10T08:49:05;23.90;84.80
10270;DHT22;5180;50.832;5.390;2022-07-10T08:51:40;24.30;84.90
10270;DHT22;5180;50.832;5.390;2022-07-10T08:54:07;24.60;84.60
10270;DHT22;5180;50.832;5.390;2022-07-10T08:56:34;25.00;84.20
10270;DHT22;5180;50.832;5.390;2022-07-10T08:59:03;25.50;83.60
10270;DHT22;5180;50.832;5.390;2022-07-10T09:01:31;25.80;82.60
10270;DHT22;5180;50.832;5.390;2022-07-10T09:03:58;25.50;82.40
10270;DHT22;5180;50.832;5.390;2022-07-10T09:06:24;25.20;82.70
10270;DHT22;5180;50.832;5.390;2022-07-10T09:09:05;25.00;82.60
10270;DHT22;5180;50.832;5.390;2022-07-10T09:11:33;24.90;82.70
10270;DHT22;5180;50.832;5.390;2022-07-10T09:14:01;24.60;82.70
10270;DHT22;5180;50.832;5.390;2022-07-10T09:16:33;24.40;82.90
10270;DHT22;5180;50.832;5.390;2022-07-10T09:19:22;24.30;82.80
10270;DHT22;5180;50.832;5.390;2022-07-10T09:22:05;24.20;82.80
10270;DHT22;5180;50.832;5.390;2022-07-10T09:24:39;24.30;83.10
10270;DHT22;5180;50.832;5.390;2022-07-10T09:27:06;24.20;82.70
10270;DHT22;5180;50.832;5.390;2022-07-10T09:32:11;23.50;83.40
10270;DHT22;5180;50.832;5.390;2022-07-10T09:34:41;23.40;83.40
10270;DHT22;5180;50.832;5.390;2022-07-10T09:37:33;23.50;83.40
10270;DHT22;5180;50.832;5.390;2022-07-10T09:40:00;23.90;83.40
10270;DHT22;5180;50.832;5.390;2022-07-10T09:47:58;26.60;82.20
10270;DHT22;5180;50.832;5.390;2022-07-10T09:50:31;27.00;80.50
10270;DHT22;5180;50.832;5.390;2022-07-10T09:53:00;27.10;80.10
10270;DHT22;5180;50.832;5.390;2022-07-10T09:55:36;27.00;79.60
10270;DHT22;5180;50.832;5.390;2022-07-10T09:58:03;26.70;79.00
10270;DHT22;5180;50.832;5.390;2022-07-10T10:00:31;26.20;79.40
10270;DHT22;5180;50.832;5.390;2022-07-10T10:03:01;26.10;79.30
10270;DHT22;5180;50.832;5.390;2022-07-10T10:08:03;26.20;79.60
10270;DHT22;5180;50.832;5.390;2022-07-10T10:10:31;26.40;79.50
10270;DHT22;5180;50.832;5.390;2022-07-10T10:12:59;26.70;79.60
10270;DHT22;5180;50.832;5.390;2022-07-10T10:15:26;27.00;79.00
10270;DHT22;5180;50.832;5.390;2022-07-10T10:17:52;27.00;79.10
10270;DHT22;5180;50.832;5.390;2022-07-10T10:20:20;27.00;78.90
10270;DHT22;5180;50.832;5.390;2022-07-10T10:23:12;26.80;78.50
10270;DHT22;5180;50.832;5.390;2022-07-10T10:25:40;26.50;78.60
10270;DHT22;5180;50.832;5.390;2022-07-10T10:28:08;26.40;78.10
10270;DHT22;5180;50.832;5.390;2022-07-10T10:30:40;26.00;78.30
10270;DHT22;5180;50.832;5.390;2022-07-10T10:36:04;25.60;78.60
10270;DHT22;5180;50.832;5.390;2022-07-10T10:41:27;25.50;78.50
10270;DHT22;5180;50.832;5.390;2022-07-10T10:46:54;24.80;79.10
10270;DHT22;5180;50.832;5.390;2022-07-10T10:49:24;24.40;79.60
10270;DHT22;5180;50.832;5.390;2022-07-10T10:52:01;24.10;80.00
10270;DHT22;5180;50.832;5.390;2022-07-10T10:54:31;23.80;80.50
10270;DHT22;5180;50.832;5.390;2022-07-10T10:57:14;23.60;80.90
10270;DHT22;5180;50.832;5.390;2022-07-10T10:59:53;23.70;81.00
10270;DHT22;5180;50.832;5.390;2022-07-10T11:04:51;24.00;80.70
10270;DHT22;5180;50.832;5.390;2022-07-10T11:07:53;24.20;80.80
10270;DHT22;5180;50.832;5.390;2022-07-10T11:10:52;24.60;80.40
10270;DHT22;5180;50.832;5.390;2022-07-10T11:13:19;25.10;80.10
10270;DHT22;5180;50.832;5.390;2022-07-10T11:15:49;25.50;80.10
10270;DHT22;5180;50.832;5.390;2022-07-10T11:18:19;25.80;79.70
10270;DHT22;5180;50.832;5.390;2022-07-10T11:20:48;26.00;79.20
10270;DHT22;5180;50.832;5.390;2022-07-10T11:26:08;26.20;79.00
10270;DHT22;5180;50.832;5.390;2022-07-10T11:28:50;26.20;79.10
10270;DHT22;5180;50.832;5.390;2022-07-10T11:31:20;26.20;78.90
10270;DHT22;5180;50.832;5.390;2022-07-10T11:33:48;26.40;78.80
10270;DHT22;5180;50.832;5.390;2022-07-10T11:36:18;26.80;78.40
10270;DHT22;5180;50.832;5.390;2022-07-10T11:38:44;27.10;78.00
10270;DHT22;5180;50.832;5.390;2022-07-10T11:41:18;27.30;77.20
10270;DHT22;5180;50.832;5.390;2022-07-10T11:43:51;27.10;77.30
10270;DHT22;5180;50.832;5.390;2022-07-10T11:46:19;27.20;77.80
10270;DHT22;5180;50.832;5.390;2022-07-10T11:48:46;27.00;76.70
10270;DHT22;5180;50.832;5.390;2022-07-10T11:51:23;26.50;76.80
10270;DHT22;5180;50.832;5.390;2022-07-10T11:54:02;26.20;77.10
10270;DHT22;5180;50.832;5.390;2022-07-10T11:56:33;26.00;77.40
10270;DHT22;5180;50.832;5.390;2022-07-10T11:59:03;25.60;77.50
10270;DHT22;5180;50.832;5.390;2022-07-10T12:01:31;25.30;77.80
10270;DHT22;5180;50.832;5.390;2022-07-10T12:04:00;24.80;78.60
10270;DHT22;5180;50.832;5.390;2022-07-10T12:06:26;24.60;79.10
10270;DHT22;5180;50.832;5.390;2022-07-10T12:08:52;24.50;79.30
10270;DHT22;5180;50.832;5.390;2022-07-10T12:11:19;24.60;79.50
10270;DHT22;5180;50.832;5.390;2022-07-10T12:13:47;25.10;79.40
10270;DHT22;5180;50.832;5.390;2022-07-10T12:16:13;25.80;79.20
10270;DHT22;5180;50.832;5.390;2022-07-10T12:18:41;26.30;78.50
10270;DHT22;5180;50.832;5.390;2022-07-10T12:21:09;26.70;78.10
10270;DHT22;5180;50.832;5.390;2022-07-10T12:23:34;26.90;77.90
10270;DHT22;5180;50.832;5.390;2022-07-10T12:26:04;26.80;77.60
10270;DHT22;5180;50.832;5.390;2022-07-10T12:28:30;27.40;77.50
10270;DHT22;5180;50.832;5.390;2022-07-10T12:30:55;27.70;76.40
10270;DHT22;5180;50.832;5.390;2022-07-10T12:33:22;28.00;76.80
10270;DHT22;5180;50.832;5.390;2022-07-10T12:35:56;28.40;76.50
10270;DHT22;5180;50.832;5.390;2022-07-10T12:38:26;28.90;76.30
10270;DHT22;5180;50.832;5.390;2022-07-10T12:41:09;29.20;76.00
10270;DHT22;5180;50.832;5.390;2022-07-10T12:43:36;29.20;75.00
10270;DHT22;5180;50.832;5.390;2022-07-10T12:46:16;29.00;75.70
10270;DHT22;5180;50.832;5.390;2022-07-10T12:49:05;28.90;75.10
10270;DHT22;5180;50.832;5.390;2022-07-10T12:51:33;28.90;75.10
10270;DHT22;5180;50.832;5.390;2022-07-10T12:53:59;29.20;74.90
10270;DHT22;5180;50.832;5.390;2022-07-10T12:56:33;29.20;74.80
10270;DHT22;5180;50.832;5.390;2022-07-10T12:59:00;29.50;74.70
10270;DHT22;5180;50.832;5.390;2022-07-10T13:01:28;29.50;74.50
10270;DHT22;5180;50.832;5.390;2022-07-10T13:04:01;29.90;74.50
10270;DHT22;5180;50.832;5.390;2022-07-10T13:06:31;30.30;74.20
10270;DHT22;5180;50.832;5.390;2022-07-10T13:08:57;30.70;73.40
10270;DHT22;5180;50.832;5.390;2022-07-10T13:11:23;30.40;72.90
10270;DHT22;5180;50.832;5.390;2022-07-10T13:13:49;30.10;73.00
10270;DHT22;5180;50.832;5.390;2022-07-10T13:16:15;30.20;73.10
10270;DHT22;5180;50.832;5.390;2022-07-10T13:18:44;30.20;73.20
10270;DHT22;5180;50.832;5.390;2022-07-10T13:21:10;29.90;72.60
10270;DHT22;5180;50.832;5.390;2022-07-10T13:23:39;29.80;72.50
10270;DHT22;5180;50.832;5.390;2022-07-10T13:26:05;29.90;72.40
10270;DHT22;5180;50.832;5.390;2022-07-10T13:28:33;29.60;72.70
10270;DHT22;5180;50.832;5.390;2022-07-10T13:30:59;29.30;72.60
10270;DHT22;5180;50.832;5.390;2022-07-10T13:33:25;29.30;72.50
10270;DHT22;5180;50.832;5.390;2022-07-10T13:35:51;29.40;72.30
10270;DHT22;5180;50.832;5.390;2022-07-10T13:38:17;29.80;72.10
10270;DHT22;5180;50.832;5.390;2022-07-10T13:40:44;29.80;71.40
10270;DHT22;5180;50.832;5.390;2022-07-10T13:43:11;29.70;71.40
10270;DHT22;5180;50.832;5.390;2022-07-10T13:45:45;29.50;71.50
10270;DHT22;5180;50.832;5.390;2022-07-10T13:48:14;29.30;71.50
10270;DHT22;5180;50.832;5.390;2022-07-10T13:50:42;29.10;71.20
10270;DHT22;5180;50.832;5.390;2022-07-10T13:53:08;28.70;72.00
10270;DHT22;5180;50.832;5.390;2022-07-10T13:55:34;28.50;72.00
10270;DHT22;5180;50.832;5.390;2022-07-10T13:58:00;28.00;71.90
10270;DHT22;5180;50.832;5.390;2022-07-10T14:00:26;27.20;72.40
10270;DHT22;5180;50.832;5.390;2022-07-10T14:02:52;26.70;72.90
10270;DHT22;5180;50.832;5.390;2022-07-10T14:05:21;26.50;73.10
10270;DHT22;5180;50.832;5.390;2022-07-10T14:07:47;26.40;73.30
10270;DHT22;5180;50.832;5.390;2022-07-10T14:10:12;26.60;73.50
10270;DHT22;5180;50.832;5.390;2022-07-10T14:12:38;27.10;73.30
10270;DHT22;5180;50.832;5.390;2022-07-10T14:15:04;27.40;73.00
10270;DHT22;5180;50.832;5.390;2022-07-10T14:17:30;27.80;72.90
10270;DHT22;5180;50.832;5.390;2022-07-10T14:19:55;28.10;72.70
10270;DHT22;5180;50.832;5.390;2022-07-10T14:22:21;28.50;72.50
10270;DHT22;5180;50.832;5.390;2022-07-10T14:24:47;28.40;72.10
10270;DHT22;5180;50.832;5.390;2022-07-10T14:27:13;28.20;72.50
10270;DHT22;5180;50.832;5.390;2022-07-10T14:29:39;28.30;72.70
10270;DHT22;5180;50.832;5.390;2022-07-10T14:32:05;28.50;73.10
10270;DHT22;5180;50.832;5.390;2022-07-10T14:34:31;28.70;73.10
10270;DHT22;5180;50.832;5.390;2022-07-10T14:36:56;28.90;72.70
10270;DHT22;5180;50.832;5.390;2022-07-10T14:39:22;29.00;72.70
10270;DHT22;5180;50.832;5.390;2022-07-10T14:41:48;29.20;72.60
10270;DHT22;5180;50.832;5.390;2022-07-10T14:44:13;29.20;72.30
10270;DHT22;5180;50.832;5.390;2022-07-10T14:46:39;29.20;72.20
10270;DHT22;5180;50.832;5.390;2022-07-10T14:49:05;29.20;71.80
10270;DHT22;5180;50.832;5.390;2022-07-10T14:51:30;29.20;71.60
10270;DHT22;5180;50.832;5.390;2022-07-10T14:53:56;28.80;71.50
10270;DHT22;5180;50.832;5.390;2022-07-10T14:56:22;28.80;71.70
10270;DHT22;5180;50.832;5.390;2022-07-10T14:58:49;28.80;71.90
10270;DHT22;5180;50.832;5.390;2022-07-10T15:01:15;28.70;71.90
10270;DHT22;5180;50.832;5.390;2022-07-10T15:03:41;28.80;71.90
10270;DHT22;5180;50.832;5.390;2022-07-10T15:06:07;28.70;71.50
10270;DHT22;5180;50.832;5.390;2022-07-10T15:08:33;28.60;71.40
10270;DHT22;5180;50.832;5.390;2022-07-10T15:10:59;28.40;71.80
10270;DHT22;5180;50.832;5.390;2022-07-10T15:13:26;28.30;72.10
10270;DHT22;5180;50.832;5.390;2022-07-10T15:15:52;28.30;71.90
10270;DHT22;5180;50.832;5.390;2022-07-10T15:18:19;28.00;71.90
10270;DHT22;5180;50.832;5.390;2022-07-10T15:20:45;27.70;72.20
10270;DHT22;5180;50.832;5.390;2022-07-10T15:23:11;27.30;72.40
10270;DHT22;5180;50.832;5.390;2022-07-10T15:25:38;27.20;72.30
10270;DHT22;5180;50.832;5.390;2022-07-10T15:28:06;27.10;72.70
10270;DHT22;5180;50.832;5.390;2022-07-10T15:30:33;27.00;73.00
10270;DHT22;5180;50.832;5.390;2022-07-10T15:32:59;26.80;73.00
10270;DHT22;5180;50.832;5.390;2022-07-10T15:35:24;26.40;73.40
10270;DHT22;5180;50.832;5.390;2022-07-10T15:37:50;26.10;73.80
10270;DHT22;5180;50.832;5.390;2022-07-10T15:40:16;25.70;74.10
10270;DHT22;5180;50.832;5.390;2022-07-10T15:42:41;25.50;74.40
10270;DHT22;5180;50.832;5.390;2022-07-10T15:45:07;25.40;74.60
10270;DHT22;5180;50.832;5.390;2022-07-10T15:47:33;25.20;74.80
10270;DHT22;5180;50.832;5.390;2022-07-10T15:49:59;25.10;75.00
10270;DHT22;5180;50.832;5.390;2022-07-10T15:52:24;24.90;75.80
10270;DHT22;5180;50.832;5.390;2022-07-10T15:54:50;24.90;75.50
10270;DHT22;5180;50.832;5.390;2022-07-10T15:57:16;24.90;75.80
10270;DHT22;5180;50.832;5.390;2022-07-10T15:59:42;24.90;75.80
10270;DHT22;5180;50.832;5.390;2022-07-10T16:02:08;25.00;75.90
10270;DHT22;5180;50.832;5.390;2022-07-10T16:04:36;25.20;75.80
10270;DHT22;5180;50.832;5.390;2022-07-10T16:07:02;25.30;75.70
10270;DHT22;5180;50.832;5.390;2022-07-10T16:09:27;25.20;75.90
10270;DHT22;5180;50.832;5.390;2022-07-10T16:11:53;25.10;76.40